Time;durP1;ratioP1;P1;durP2;ratioP2;P2;SDS_P1;SDS_P2;PMS_P1;PMS_P2;Temp;Humidity;BMP_temperature;BMP_pressure;BME280_temperature;BME280_humidity;BME280_pressure;Samples;Min_cycle;Max_cycle;Signal;HPM_P1;HPM_P2
2024/02/25 00:00:59;;;;;;;0.80;0.80;;;;;;;10.12;71.09;97095.44;4983591;28;20071;-52
2024/02/25 00:03:26;;;;;;;0.80;0.80;;;;;;;9.87;71.84;97066.47;4984867;28;20050;-52
2024/02/25 00:05:53;;;;;;;0.80;0.80;;;;;;;9.71;72.23;97038.06;4984607;28;20503;-61
2024/02/25 00:08:20;;;;;;;0.70;0.70;;;;;;;10.16;71.22;97112.13;4984471;28;20050;-62
2024/02/25 00:10:47;;;;;;;0.80;0.80;;;;;;;9.99;71.58;97084.88;4984844;28;20421;-52
2024/02/25 00:13:14;;;;;;;0.80;0.80;;;;;;;10.13;71.43;97113.66;4984597;28;20060;-62
2024/02/25 00:15:41;;;;;;;0.90;0.90;;;;;;;10.22;70.98;97089.34;4984048;28;20128;-62
2024/02/25 00:18:08;;;;;;;0.80;0.80;;;;;;;9.84;70.99;97045.06;4982990;28;20054;-62
2024/02/25 00:20:35;;;;;;;0.80;0.80;;;;;;;10.17;70.75;97097.94;4983976;28;20497;-62
2024/02/25 00:23:02;;;;;;;0.80;0.80;;;;;;;10.11;71.01;97082.78;4984447;28;20489;-62
2024/02/25 00:25:28;;;;;;;0.90;0.90;;;;;;;10.13;70.93;97091.50;4984544;28;20052;-52
2024/02/25 00:27:55;;;;;;;0.80;0.80;;;;;;;10.01;71.83;97088.88;4984199;28;20501;-61
2024/02/25 00:30:22;;;;;;;0.90;0.90;;;;;;;9.89;71.60;97069.69;4984442;28;20177;-52
2024/02/25 00:32:48;;;;;;;0.82;0.82;;;;;;;9.77;72.05;97061.50;4984882;28;20061;-61
2024/02/25 00:35:16;;;;;;;0.80;0.80;;;;;;;9.95;72.09;97101.41;4985273;28;20053;-61
2024/02/25 00:37:45;;;;;;;0.80;0.80;;;;;;;9.96;72.26;97097.47;4984334;28;20156;-53
2024/02/25 00:40:13;;;;;;;0.80;0.80;;;;;;;9.97;71.81;97099.09;4963493;28;20566;-52
2024/02/25 00:42:40;;;;;;;0.80;0.80;;;;;;;10.01;71.85;97099.94;4964682;28;20090;-52
2024/02/25 00:45:08;;;;;;;0.80;0.80;;;;;;;10.07;71.89;97101.28;4964378;28;20514;-52
2024/02/25 00:47:35;;;;;;;0.80;0.80;;;;;;;9.99;71.58;97069.06;4958982;28;20050;-61
2024/02/25 00:50:04;;;;;;;0.80;0.80;;;;;;;9.69;71.62;97026.56;4959872;28;20550;-62
2024/02/25 00:52:33;;;;;;;0.80;0.80;;;;;;;10.02;71.89;97084.94;4964535;28;20501;-54
2024/02/25 00:55:01;;;;;;;0.80;0.80;;;;;;;9.40;72.59;96976.59;4964054;28;20051;-62
2024/02/25 00:57:28;;;;;;;0.80;0.80;;;;;;;10.01;73.16;97091.66;4964573;28;20066;-61
2024/02/25 00:59:54;;;;;;;0.70;0.70;;;;;;;10.02;73.32;97082.16;4963524;28;20512;-55
2024/02/25 01:02:21;;;;;;;0.80;0.80;;;;;;;10.10;73.02;97078.41;4964320;28;20047;-62
2024/02/25 01:04:48;;;;;;;0.80;0.80;;;;;;;10.04;73.01;97079.84;4964176;28;20057;-62
2024/02/25 01:07:15;;;;;;;0.70;0.70;;;;;;;9.56;73.03;97022.38;4964896;28;20046;-62
2024/02/25 01:09:42;;;;;;;0.90;0.90;;;;;;;10.01;73.23;97099.94;4964582;28;20061;-55
2024/02/25 01:12:09;;;;;;;0.88;0.88;;;;;;;9.99;73.40;97084.88;4964701;28;20465;-52
2024/02/25 01:14:36;;;;;;;0.73;0.73;;;;;;;9.89;73.47;97069.69;4964415;28;20055;-52
2024/02/25 01:17:03;;;;;;;0.80;0.80;;;;;;;10.03;73.68;97074.66;4964131;28;20054;-53
2024/02/25 01:19:30;;;;;;;0.80;0.80;;;;;;;9.55;73.07;96997.84;4963054;28;20109;-52
2024/02/25 01:21:57;;;;;;;0.73;0.73;;;;;;;9.54;73.23;96996.25;4964352;28;20554;-62
2024/02/25 01:24:24;;;;;;;0.90;0.90;;;;;;;10.04;73.01;97088.13;4963667;28;20051;-52
2024/02/25 01:26:51;;;;;;;0.80;0.80;;;;;;;10.11;73.32;97082.78;4963744;28;20548;-62
2024/02/25 01:29:18;;;;;;;0.80;0.80;;;;;;;10.06;73.47;97083.06;4963860;28;20054;-52
2024/02/25 01:31:50;;;;;;;0.80;0.80;;;;;;;10.13;73.01;97074.13;4963719;28;20050;-55
2024/02/25 01:34:17;;;;;;;0.80;0.80;;;;;;;10.16;73.12;97071.41;4962130;28;20381;-52
2024/02/25 01:36:45;;;;;;;0.80;0.80;;;;;;;9.58;73.05;96997.91;4962301;28;20523;-62
2024/02/25 01:39:11;;;;;;;0.80;0.80;;;;;;;9.67;73.49;97020.63;4972227;28;20062;-62
2024/02/25 01:41:38;;;;;;;0.80;0.80;;;;;;;10.09;73.36;97074.03;4984008;28;20105;-54
2024/02/25 01:44:05;;;;;;;0.73;0.73;;;;;;;10.04;74.02;97068.78;4983803;28;20046;-55
2024/02/25 01:46:32;;;;;;;0.80;0.80;;;;;;;9.92;74.05;97052.34;4983153;28;20050;-62
2024/02/25 01:49:00;;;;;;;0.80;0.80;;;;;;;9.87;74.64;97052.63;4981722;28;20060;-63
2024/02/25 01:51:27;;;;;;;0.80;0.80;;;;;;;9.91;74.28;97064.56;4983110;28;20537;-62
2024/02/25 01:53:54;;;;;;;0.70;0.70;;;;;;;9.94;73.81;97061.06;4983056;28;20514;-62
2024/02/25 01:56:21;;;;;;;0.80;0.80;;;;;;;9.97;73.74;97060.34;4982846;28;20157;-62
2024/02/25 01:58:52;;;;;;;0.70;0.70;;;;;;;10.01;73.95;97061.19;4983154;28;20069;-55
2024/02/25 02:01:20;;;;;;;0.80;0.80;;;;;;;10.02;73.73;97057.25;4982650;28;20477;-52
2024/02/25 02:03:47;;;;;;;0.80;0.80;;;;;;;9.78;74.10;97041.00;4983279;28;20120;-52
2024/02/25 02:06:14;;;;;;;0.80;0.80;;;;;;;9.92;74.52;97057.88;4983225;28;20166;-62
2024/02/25 02:08:41;;;;;;;0.80;0.80;;;;;;;9.97;74.17;97054.81;4982986;28;20264;-52
2024/02/25 02:11:18;;;;;;;0.70;0.70;;;;;;;9.98;73.84;97061.94;4983622;28;20125;-62
2024/02/25 02:13:45;;;;;;;0.80;0.80;;;;;;;9.89;74.59;97064.13;4987371;28;20185;-62
2024/02/25 02:16:13;;;;;;;0.75;0.75;;;;;;;9.91;74.32;97061.78;4987198;28;20050;-53
2024/02/25 02:18:41;;;;;;;0.80;0.80;;;;;;;9.95;75.03;97061.88;4987223;28;20749;-53
2024/02/25 02:21:18;;;;;;;0.80;0.80;;;;;;;9.92;74.29;97052.34;4987085;28;20572;-62
2024/02/25 02:23:45;;;;;;;0.80;0.80;;;;;;;9.48;74.78;97006.81;4986954;28;20060;-62
2024/02/25 02:26:12;;;;;;;0.70;0.70;;;;;;;10.00;74.30;97064.34;4986339;28;20588;-52
2024/02/25 02:28:39;;;;;;;0.80;0.80;;;;;;;9.93;74.97;97066.97;4986372;28;20082;-62
2024/02/25 02:31:05;;;;;;;0.80;0.80;;;;;;;9.77;76.21;97075.34;4986663;28;20155;-55
2024/02/25 02:33:32;;;;;;;0.80;0.80;;;;;;;9.74;76.41;97072.50;4986294;28;20054;-53
2024/02/25 02:35:59;;;;;;;0.80;0.80;;;;;;;9.59;76.84;97074.19;4986220;28;20057;-62
2024/02/25 02:38:26;;;;;;;0.70;0.70;;;;;;;9.58;76.91;97069.81;4986002;28;20062;-62
2024/02/25 02:40:53;;;;;;;0.70;0.70;;;;;;;9.67;77.23;97075.94;4984676;28;20520;-63
2024/02/25 02:43:20;;;;;;;0.80;0.80;;;;;;;9.71;77.08;97074.03;4985009;28;20108;-53
2024/02/25 02:45:50;;;;;;;0.80;0.80;;;;;;;9.37;77.24;97027.91;4984550;28;20401;-55
2024/02/25 02:48:18;;;;;;;0.80;0.80;;;;;;;9.80;77.22;97082.91;4982999;28;20168;-52
2024/02/25 02:50:45;;;;;;;0.75;0.75;;;;;;;9.56;76.56;97032.63;4986088;28;20109;-62
2024/02/25 02:53:12;;;;;;;0.80;0.80;;;;;;;9.97;76.25;97104.63;4987210;28;20050;-62
2024/02/25 02:55:39;;;;;;;0.80;0.80;;;;;;;10.02;75.87;97095.22;4986577;28;20134;-62
2024/02/25 02:58:06;;;;;;;0.80;0.80;;;;;;;10.02;75.91;97090.47;4986383;28;20506;-62
2024/02/25 03:00:34;;;;;;;0.80;0.80;;;;;;;10.01;76.12;97088.88;4985912;28;20054;-52
2024/02/25 03:03:01;;;;;;;0.80;0.80;;;;;;;10.10;75.74;97081.16;4986191;28;20134;-62
2024/02/25 03:05:28;;;;;;;0.80;0.80;;;;;;;10.12;74.98;97089.09;4985727;28;20054;-62
2024/02/25 03:07:55;;;;;;;0.90;0.90;;;;;;;9.94;75.28;97072.13;4984693;28;20600;-52
2024/02/25 03:10:22;;;;;;;0.85;0.85;;;;;;;9.79;75.29;97031.53;4984701;28;20084;-53
2024/02/25 03:12:49;;;;;;;0.80;0.80;;;;;;;10.12;75.29;97084.38;4992038;28;20367;-53
2024/02/25 03:15:16;;;;;;;0.80;0.80;;;;;;;9.93;75.73;97073.28;4985713;28;20516;-53
2024/02/25 03:17:45;;;;;;;0.80;0.80;;;;;;;10.10;75.81;97103.31;4984309;28;20167;-62
2024/02/25 03:20:13;;;;;;;0.70;0.70;;;;;;;9.58;75.07;97013.72;4985676;28;20093;-62
2024/02/25 03:22:40;;;;;;;0.80;0.80;;;;;;;10.01;75.96;97094.41;4967616;28;20155;-62
2024/02/25 03:25:08;;;;;;;0.80;0.80;;;;;;;10.11;76.29;97121.53;4966821;28;20055;-56
2024/02/25 03:27:36;;;;;;;0.80;0.80;;;;;;;10.21;75.88;97109.84;4966678;28;20281;-52
2024/02/25 03:30:08;;;;;;;0.90;0.90;;;;;;;10.07;76.02;97070.84;4965918;28;20054;-53
2024/02/25 03:32:35;;;;;;;0.80;0.80;;;;;;;10.28;76.14;97106.44;4964468;28;20084;-62
2024/02/25 03:35:02;;;;;;;0.80;0.80;;;;;;;10.22;76.78;97102.34;4965484;28;20055;-62
2024/02/25 03:37:29;;;;;;;0.90;0.90;;;;;;;10.15;77.90;97116.84;4966234;28;20081;-63
2024/02/25 03:39:56;;;;;;;0.80;0.80;;;;;;;10.14;78.87;97120.81;4977298;28;20085;-62
2024/02/25 03:42:27;;;;;;;0.80;0.80;;;;;;;10.19;78.84;97112.22;4984293;28;20050;-63
2024/02/25 03:44:53;;;;;;;0.80;0.80;;;;;;;10.08;79.33;97111.19;4985074;28;20050;-63
2024/02/25 03:47:20;;;;;;;0.80;0.80;;;;;;;9.61;79.72;97024.81;4984778;28;20046;-55
2024/02/25 03:49:47;;;;;;;0.77;0.77;;;;;;;10.10;80.18;97111.63;4983432;28;20226;-64
2024/02/25 03:52:14;;;;;;;0.90;0.90;;;;;;;9.60;79.96;97039.81;4974013;28;20116;-52
2024/02/25 03:54:45;;;;;;;0.80;0.80;;;;;;;9.87;80.45;97101.63;4984719;28;20134;-52
2024/02/25 03:57:12;;;;;;;0.80;0.80;;;;;;;9.92;81.12;97118.75;4984995;28;20434;-65
2024/02/25 03:59:39;;;;;;;0.80;0.80;;;;;;;9.95;81.71;97126.31;4984809;28;20061;-51
2024/02/25 04:02:05;;;;;;;0.75;0.75;;;;;;;9.93;81.39;97112.03;4984557;28;20082;-64
2024/02/25 04:04:32;;;;;;;0.80;0.80;;;;;;;9.83;81.60;97115.38;4984412;28;20565;-53
2024/02/25 04:06:59;;;;;;;0.70;0.70;;;;;;;9.87;82.29;97109.91;4984626;28;20109;-64
2024/02/25 04:09:26;;;;;;;0.80;0.80;;;;;;;9.87;82.85;97105.19;4984758;28;20104;-64
2024/02/25 04:11:52;;;;;;;0.70;0.70;;;;;;;9.81;82.95;97106.66;4985137;28;20394;-52
2024/02/25 04:14:19;;;;;;;0.70;0.70;;;;;;;9.40;82.46;97063.09;4984923;28;20137;-52
2024/02/25 04:16:46;;;;;;;0.70;0.70;;;;;;;9.63;83.74;97091.63;4985058;28;20090;-63
2024/02/25 04:19:13;;;;;;;0.80;0.80;;;;;;;9.78;83.55;97112.91;4984349;28;20054;-52
2024/02/25 04:21:41;;;;;;;0.70;0.70;;;;;;;9.60;83.25;97084.06;4984441;28;20094;-52
2024/02/25 04:24:08;;;;;;;0.80;0.80;;;;;;;9.66;84.84;97113.03;4984561;28;20137;-52
2024/02/25 04:26:35;;;;;;;0.77;0.77;;;;;;;9.77;84.28;97119.59;4983150;28;20062;-64
2024/02/25 04:29:01;;;;;;;0.80;0.80;;;;;;;9.72;85.23;97113.56;4984692;28;20069;-65
2024/02/25 04:31:28;;;;;;;0.70;0.70;;;;;;;9.72;85.82;97119.88;4984497;28;20524;-51
2024/02/25 04:33:55;;;;;;;0.70;0.70;;;;;;;9.54;86.23;97091.06;4984305;28;20544;-52
2024/02/25 04:36:22;;;;;;;0.73;0.73;;;;;;;9.35;86.88;97068.91;4982331;28;20577;-65
2024/02/25 04:38:48;;;;;;;0.70;0.70;;;;;;;9.68;87.82;97113.47;4983926;28;20062;-65
2024/02/25 04:41:15;;;;;;;0.80;0.80;;;;;;;9.66;88.75;97121.34;4982606;28;20432;-52
2024/02/25 04:43:42;;;;;;;0.70;0.70;;;;;;;9.67;88.97;97122.97;4984068;28;20058;-64
2024/02/25 04:46:09;;;;;;;0.70;0.70;;;;;;;9.65;89.86;97130.00;4984088;28;20081;-51
2024/02/25 04:48:38;;;;;;;0.70;0.70;;;;;;;9.44;89.67;97080.56;4985126;28;20051;-64
2024/02/25 04:51:05;;;;;;;0.80;0.80;;;;;;;9.61;89.94;97135.44;4984850;28;20062;-52
2024/02/25 04:53:31;;;;;;;0.80;0.80;;;;;;;9.58;89.53;97191.47;4984655;28;20047;-64
2024/02/25 04:56:00;;;;;;;0.80;0.80;;;;;;;9.61;88.86;97129.91;4982809;28;20068;-52
2024/02/25 04:58:27;;;;;;;0.70;0.70;;;;;;;9.74;87.92;97112.03;4984117;28;20082;-55
2024/02/25 05:00:53;;;;;;;0.80;0.80;;;;;;;9.86;85.81;97092.53;4983392;28;20055;-52
2024/02/25 05:03:21;;;;;;;0.80;0.80;;;;;;;9.59;88.63;97121.19;4983834;28;20061;-53
2024/02/25 05:05:48;;;;;;;0.80;0.80;;;;;;;9.48;89.26;97086.97;4983555;28;20156;-53
2024/02/25 05:08:15;;;;;;;0.80;0.80;;;;;;;9.56;88.91;97105.34;4984072;28;20053;-64
2024/02/25 05:10:42;;;;;;;0.80;0.80;;;;;;;9.67;88.45;97114.66;4982362;28;20046;-51
2024/02/25 05:13:09;;;;;;;0.70;0.70;;;;;;;9.35;88.54;97066.16;4982223;28;20082;-52
2024/02/25 05:15:37;;;;;;;0.70;0.70;;;;;;;9.73;88.51;97121.50;4981821;28;20063;-55
2024/02/25 05:18:04;;;;;;;0.70;0.70;;;;;;;9.74;88.45;97123.09;4983491;28;20089;-54
2024/02/25 05:20:31;;;;;;;0.70;0.70;;;;;;;9.71;88.24;97107.22;4983063;28;20105;-52
2024/02/25 05:22:58;;;;;;;0.80;0.80;;;;;;;9.74;88.61;97117.56;4983571;28;20568;-65
2024/02/25 05:25:24;;;;;;;0.80;0.80;;;;;;;9.77;87.51;97100.22;4982275;28;20056;-64
2024/02/25 05:27:51;;;;;;;0.80;0.80;;;;;;;9.46;87.33;97064.41;4983995;28;20050;-54
2024/02/25 05:30:18;;;;;;;0.80;0.80;;;;;;;9.81;88.13;97112.19;4983641;28;20062;-52
2024/02/25 05:32:45;;;;;;;0.80;0.80;;;;;;;9.79;88.15;97125.56;4983832;28;20381;-64
2024/02/25 05:35:12;;;;;;;0.80;0.80;;;;;;;8.80;88.06;96967.03;4982065;28;20104;-64
2024/02/25 05:37:38;;;;;;;0.70;0.70;;;;;;;9.95;87.75;97131.84;4982644;28;20060;-54
2024/02/25 05:40:06;;;;;;;0.75;0.75;;;;;;;9.73;87.73;97088.31;4983044;28;20054;-51
2024/02/25 05:42:35;;;;;;;0.80;0.80;;;;;;;10.11;87.49;97116.00;4981625;28;20061;-63
2024/02/25 05:45:03;;;;;;;0.80;0.80;;;;;;;10.12;87.67;97123.13;4982751;28;20161;-52
2024/02/25 05:47:30;;;;;;;0.82;0.82;;;;;;;10.23;87.59;97124.13;4982873;28;20129;-52
2024/02/25 05:49:58;;;;;;;0.80;0.80;;;;;;;9.70;87.65;97039.25;4982736;28;20120;-64
2024/02/25 05:52:25;;;;;;;0.80;0.80;;;;;;;10.28;87.59;97148.75;4983011;28;20434;-51
2024/02/25 05:54:52;;;;;;;0.80;0.80;;;;;;;10.30;87.55;97140.91;4982386;28;20092;-52
2024/02/25 05:57:19;;;;;;;0.80;0.80;;;;;;;10.39;87.07;97121.28;4983039;28;20271;-62
2024/02/25 05:59:48;;;;;;;0.80;0.80;;;;;;;10.44;86.13;97130.09;4982408;28;20062;-62
2024/02/25 06:02:15;;;;;;;0.80;0.80;;;;;;;10.00;84.97;97054.09;4983623;28;20140;-52
2024/02/25 06:04:42;;;;;;;0.80;0.80;;;;;;;10.48;84.50;97119.88;4981973;28;20050;-52
2024/02/25 06:07:09;;;;;;;0.75;0.75;;;;;;;9.47;86.26;97015.47;4983097;28;20054;-62
2024/02/25 06:09:36;;;;;;;0.80;0.80;;;;;;;10.20;86.59;97105.50;4982686;28;20536;-62
2024/02/25 06:12:03;;;;;;;0.80;0.80;;;;;;;9.77;87.48;97033.84;4982955;28;20145;-52
2024/02/25 06:14:31;;;;;;;0.80;0.80;;;;;;;9.87;87.40;97036.03;4981801;28;20144;-53
2024/02/25 06:16:58;;;;;;;0.80;0.80;;;;;;;10.08;87.06;97061.38;4982629;28;20214;-52
2024/02/25 06:19:25;;;;;;;0.90;0.90;;;;;;;10.45;87.38;97098.44;4981447;28;20054;-52
2024/02/25 06:21:52;;;;;;;0.88;0.88;;;;;;;10.63;87.58;97096.81;4981320;28;20054;-62
2024/02/25 06:24:19;;;;;;;0.80;0.80;;;;;;;10.80;85.69;97103.81;4982352;28;20629;-52
2024/02/25 06:26:46;;;;;;;0.90;0.90;;;;;;;10.92;84.91;97100.06;4982475;28;20142;-52
2024/02/25 06:29:14;;;;;;;0.90;0.90;;;;;;;10.57;84.95;97051.19;4982944;28;20532;-54
2024/02/25 06:31:43;;;;;;;0.80;0.80;;;;;;;10.83;85.47;97063.50;4982963;28;20050;-53
2024/02/25 06:34:11;;;;;;;0.88;0.88;;;;;;;11.17;85.27;97098.47;4981011;28;20054;-55
2024/02/25 06:36:38;;;;;;;0.90;0.90;;;;;;;11.37;84.79;97091.63;4982412;28;20502;-51
2024/02/25 06:39:08;;;;;;;0.90;0.90;;;;;;;11.15;84.49;97043.41;4982569;28;20089;-62
2024/02/25 06:41:36;;;;;;;0.90;0.90;;;;;;;11.22;84.04;97026.88;4981652;28;20061;-62
2024/02/25 06:44:03;;;;;;;0.90;0.90;;;;;;;11.81;83.56;97076.03;4982239;28;20050;-62
2024/02/25 06:46:29;;;;;;;0.90;0.90;;;;;;;11.87;82.39;97083.63;4982710;28;20057;-52
2024/02/25 06:48:56;;;;;;;0.90;0.90;;;;;;;11.84;81.80;97069.72;4982518;28;20046;-52
2024/02/25 06:51:28;;;;;;;0.93;0.93;;;;;;;12.01;81.16;97135.78;4982508;28;20058;-62
2024/02/25 06:53:55;;;;;;;0.90;0.90;;;;;;;11.93;80.00;97084.91;4982221;28;20649;-62
2024/02/25 06:56:22;;;;;;;0.90;0.90;;;;;;;11.92;80.07;97076.94;4982540;28;20472;-62
2024/02/25 06:58:49;;;;;;;0.90;0.90;;;;;;;12.01;80.43;97091.38;4982773;28;20511;-52
2024/02/25 07:01:16;;;;;;;1.00;1.00;;;;;;;12.09;80.82;97096.59;4986093;28;20061;-55
2024/02/25 07:03:44;;;;;;;0.90;0.90;;;;;;;12.28;79.94;97101.19;4986094;28;20125;-62
2024/02/25 07:06:15;;;;;;;1.00;1.00;;;;;;;11.62;79.52;96987.34;4985983;28;20046;-52
2024/02/25 07:08:42;;;;;;;1.02;1.02;;;;;;;12.30;79.36;97098.81;4985903;28;20144;-52
2024/02/25 07:11:19;;;;;;;1.00;1.00;;;;;;;12.36;79.25;97088.97;4985615;28;20054;-61
2024/02/25 07:13:48;;;;;;;1.00;1.00;;;;;;;12.39;79.02;97085.44;4986425;28;20527;-53
2024/02/25 07:16:14;;;;;;;0.90;0.90;;;;;;;12.43;78.97;97085.47;4986157;28;20052;-52
2024/02/25 07:18:42;;;;;;;0.93;0.93;;;;;;;12.48;78.98;97094.28;4984925;28;20064;-53
2024/02/25 07:21:11;;;;;;;0.98;0.98;;;;;;;12.57;78.24;97088.38;4985469;28;20062;-62
2024/02/25 07:23:44;;;;;;;1.00;1.00;;;;;;;12.46;78.13;97107.72;4985673;28;20635;-62
2024/02/25 07:26:13;;;;;;;1.00;1.00;;;;;;;12.00;80.78;97089.75;4983767;28;20128;-52
2024/02/25 07:28:41;;;;;;;0.82;0.82;;;;;;;12.05;81.71;97114.41;4984234;28;20058;-52
2024/02/25 07:31:16;;;;;;;0.98;0.98;;;;;;;11.77;83.06;97105.72;4985190;28;20077;-55
2024/02/25 07:33:43;;;;;;;0.90;0.90;;;;;;;11.75;82.72;97111.66;4985527;28;20054;-63
2024/02/25 07:36:15;;;;;;;0.90;0.90;;;;;;;10.94;84.39;97081.09;4984980;28;20051;-55
2024/02/25 07:38:42;;;;;;;0.90;0.90;;;;;;;11.20;84.92;97106.84;4984900;28;20062;-51
2024/02/25 07:41:10;;;;;;;0.80;0.80;;;;;;;11.37;84.34;97106.31;4983676;28;20061;-52
2024/02/25 07:43:38;;;;;;;0.90;0.90;;;;;;;11.31;83.18;97096.72;4985334;28;20054;-63
2024/02/25 07:46:06;;;;;;;0.90;0.90;;;;;;;11.37;83.51;97109.09;4985418;28;20053;-62
2024/02/25 07:48:33;;;;;;;1.00;1.00;;;;;;;11.11;83.78;97044.53;4985461;28;20433;-63
2024/02/25 07:51:00;;;;;;;0.90;0.90;;;;;;;11.29;85.23;97114.88;4985018;28;20130;-54
2024/02/25 07:53:28;;;;;;;0.90;0.90;;;;;;;11.30;84.42;97061.03;4984790;28;20054;-52
2024/02/25 07:55:54;;;;;;;0.80;0.80;;;;;;;11.58;83.98;97083.63;4985596;28;20062;-62
2024/02/25 07:58:21;;;;;;;0.90;0.90;;;;;;;11.80;81.84;97063.34;4985325;28;20061;-63
2024/02/25 08:00:48;;;;;;;0.90;0.90;;;;;;;12.17;80.65;97105.84;4985260;28;20430;-52
2024/02/25 08:03:15;;;;;;;0.90;0.90;;;;;;;11.65;81.10;97039.38;4985536;28;20095;-63
2024/02/25 08:05:43;;;;;;;1.00;1.00;;;;;;;11.21;83.22;97002.28;4984773;28;20203;-51
2024/02/25 08:08:10;;;;;;;0.90;0.90;;;;;;;11.11;84.08;97033.44;4985008;28;20162;-52
2024/02/25 08:10:42;;;;;;;1.00;1.00;;;;;;;11.49;83.02;97033.19;4984479;28;20057;-61
2024/02/25 08:13:09;;;;;;;0.95;0.95;;;;;;;11.93;81.80;97173.72;4984921;28;20058;-62
2024/02/25 08:15:35;;;;;;;0.90;0.90;;;;;;;11.68;84.13;97105.22;4984217;28;20498;-61
2024/02/25 08:18:02;;;;;;;0.90;0.90;;;;;;;11.78;84.93;97104.53;4984633;28;20445;-53
2024/02/25 08:20:29;;;;;;;0.90;0.90;;;;;;;12.39;81.36;97106.88;4982993;28;20485;-62
2024/02/25 08:22:56;;;;;;;0.93;0.93;;;;;;;12.60;80.20;97107.88;4984339;28;20086;-55
2024/02/25 08:25:23;;;;;;;1.10;1.10;;;;;;;12.81;79.24;97094.19;4982924;28;20054;-62
2024/02/25 08:27:50;;;;;;;1.00;1.00;;;;;;;13.01;77.39;97103.94;4984529;28;20100;-62
2024/02/25 08:30:16;;;;;;;0.95;0.95;;;;;;;12.81;78.58;97101.72;4984229;28;20042;-62
2024/02/25 08:32:43;;;;;;;1.00;1.00;;;;;;;12.94;78.37;97095.50;4984321;28;20516;-52
2024/02/25 08:35:11;;;;;;;1.10;1.10;;;;;;;13.48;75.30;97103.09;4984541;28;20058;-62
2024/02/25 08:37:41;;;;;;;0.90;0.90;;;;;;;13.78;73.95;97091.75;4983799;28;20116;-62
2024/02/25 08:40:08;;;;;;;1.20;1.20;;;;;;;14.42;72.93;97110.34;4979311;28;20086;-62
2024/02/25 08:42:35;;;;;;;1.10;1.10;;;;;;;14.52;69.94;97023.16;4965251;28;20046;-56
2024/02/25 08:45:02;;;;;;;1.25;1.25;;;;;;;14.36;69.71;97020.75;4965659;28;20134;-64
2024/02/25 08:47:29;;;;;;;1.30;1.30;;;;;;;15.40;66.67;97085.34;4965490;28;20090;-62
2024/02/25 08:49:57;;;;;;;1.20;1.20;;;;;;;15.56;65.58;97082.94;4964615;28;20082;-63
2024/02/25 08:52:24;;;;;;;1.48;1.48;;;;;;;15.92;64.10;97062.09;4964472;28;20157;-53
2024/02/25 08:54:51;;;;;;;1.63;1.63;;;;;;;16.00;63.67;97074.84;4964211;28;20582;-52
2024/02/25 08:57:18;;;;;;;1.45;1.45;;;;;;;16.08;63.42;97070.81;4964263;28;20161;-63
2024/02/25 08:59:45;;;;;;;1.50;1.50;;;;;;;15.74;64.93;97072.53;4963939;28;20541;-53
2024/02/25 09:02:13;;;;;;;1.40;1.40;;;;;;;16.12;64.06;97063.19;4964326;28;20113;-63
2024/02/25 09:04:39;;;;;;;1.60;1.60;;;;;;;16.55;62.77;97067.41;4963018;28;20403;-53
2024/02/25 09:07:06;;;;;;;1.50;1.50;;;;;;;16.96;61.72;97059.13;4963984;28;20059;-52
2024/02/25 09:09:33;;;;;;;1.50;1.50;;;;;;;16.84;60.81;97045.63;4964276;28;20573;-53
2024/02/25 09:12:00;;;;;;;1.58;1.58;;;;;;;16.87;60.25;97049.59;4962460;28;20054;-62
2024/02/25 09:14:28;;;;;;;1.60;1.60;;;;;;;16.56;61.73;97041.06;4963931;28;20062;-52
2024/02/25 09:16:55;;;;;;;1.50;1.50;;;;;;;16.59;60.67;97034.63;4962645;28;20149;-52
2024/02/25 09:19:23;;;;;;;1.50;1.50;;;;;;;16.82;61.23;97036.84;4963864;28;20069;-54
2024/02/25 09:21:50;;;;;;;1.58;1.58;;;;;;;17.30;60.05;97045.25;4964061;28;20100;-52
2024/02/25 09:24:17;;;;;;;1.40;1.40;;;;;;;17.68;58.64;97044.91;4962549;28;20053;-63
2024/02/25 09:26:46;;;;;;;1.70;1.70;;;;;;;18.09;57.68;97037.22;4962506;28;20484;-55
2024/02/25 09:29:13;;;;;;;1.60;1.60;;;;;;;18.45;56.44;97037.56;4964388;28;20074;-63
2024/02/25 09:31:41;;;;;;;1.70;1.70;;;;;;;18.49;55.51;97038.31;4962867;28;20140;-62
2024/02/25 09:34:11;;;;;;;1.60;1.60;;;;;;;18.42;55.19;97032.81;4963907;28;20051;-55
2024/02/25 09:36:41;;;;;;;1.77;1.77;;;;;;;18.36;55.02;97028.03;4964032;28;20501;-53
2024/02/25 09:39:09;;;;;;;2.08;2.08;;;;;;;18.42;54.50;97015.97;4966228;28;20058;-52
2024/02/25 09:41:39;;;;;;;1.80;1.80;;;;;;;18.42;54.63;97027.19;4983585;28;20076;-63
2024/02/25 09:44:26;;;;;;;1.98;1.98;;;;;;;17.38;54.99;96873.16;4984148;28;20058;-63
2024/02/25 09:46:55;;;;;;;1.70;1.70;;;;;;;18.25;55.13;97016.19;4983549;28;20136;-53
2024/02/25 09:49:26;;;;;;;1.77;1.77;;;;;;;18.25;55.30;97005.78;4982699;28;20465;-63
2024/02/25 09:51:54;;;;;;;1.90;1.90;;;;;;;18.13;54.92;96978.28;4982984;28;20058;-65
2024/02/25 09:54:20;;;;;;;1.77;1.77;;;;;;;17.61;55.19;96910.50;4980970;28;20054;-53
2024/02/25 09:56:50;;;;;;;1.60;1.60;;;;;;;18.51;54.70;97007.81;4982747;28;20054;-63
2024/02/25 09:59:20;;;;;;;1.85;1.85;;;;;;;18.23;54.99;97001.78;4982716;28;20270;-63
2024/02/25 10:01:47;;;;;;;1.60;1.60;;;;;;;17.28;57.32;96997.25;4981307;28;20050;-62
2024/02/25 10:04:15;;;;;;;1.60;1.60;;;;;;;17.84;56.20;96991.09;4981495;28;20539;-52
2024/02/25 10:06:45;;;;;;;1.70;1.70;;;;;;;16.96;58.56;97013.59;4981403;28;20046;-62
2024/02/25 10:09:12;;;;;;;1.90;1.90;;;;;;;17.39;56.75;96953.16;4981220;28;20050;-63
2024/02/25 10:11:43;;;;;;;1.70;1.70;;;;;;;17.96;55.77;96949.28;4982589;28;20085;-63
2024/02/25 10:14:10;;;;;;;1.42;1.42;;;;;;;17.39;57.77;96975.56;4983497;28;20105;-54
2024/02/25 10:16:37;;;;;;;1.58;1.58;;;;;;;18.14;56.45;96971.47;4983143;28;20129;-54
2024/02/25 10:19:04;;;;;;;1.88;1.88;;;;;;;18.09;54.80;96896.25;4983209;28;20051;-53
2024/02/25 10:21:32;;;;;;;1.75;1.75;;;;;;;17.29;57.07;96928.88;4981371;28;20468;-53
2024/02/25 10:23:59;;;;;;;1.70;1.70;;;;;;;17.87;56.75;96959.41;4982959;28;20054;-52
2024/02/25 10:26:26;;;;;;;1.52;1.52;;;;;;;17.14;57.07;96863.03;4982237;28;20050;-62
2024/02/25 10:29:04;;;;;;;1.40;1.40;;;;;;;17.21;58.08;96936.56;4981327;28;20050;-53
2024/02/25 10:31:32;;;;;;;1.60;1.60;;;;;;;17.55;57.57;96942.19;4982593;28;20065;-62
2024/02/25 10:33:59;;;;;;;1.67;1.67;;;;;;;17.96;56.61;96940.88;4985759;28;20060;-62
2024/02/25 10:36:26;;;;;;;1.77;1.77;;;;;;;17.86;55.18;96879.38;4986348;28;20142;-63
2024/02/25 10:38:56;;;;;;;1.95;1.95;;;;;;;18.35;54.37;96937.53;4984534;28;20148;-63
2024/02/25 10:41:24;;;;;;;1.80;1.80;;;;;;;18.01;55.10;96939.59;4985051;28;20614;-53
2024/02/25 10:43:59;;;;;;;1.80;1.80;;;;;;;17.51;56.50;96896.66;4987265;28;20763;-53
2024/02/25 10:46:44;;;;;;;1.60;1.60;;;;;;;17.96;55.86;96926.06;4986803;28;20124;-63
2024/02/25 10:49:16;;;;;;;1.60;1.60;;;;;;;18.30;55.42;96917.56;4987019;28;20062;-63
2024/02/25 10:51:44;;;;;;;1.50;1.50;;;;;;;18.20;56.17;96924.91;4986298;28;20051;-63
2024/02/25 10:54:15;;;;;;;1.63;1.63;;;;;;;18.09;56.38;96913.06;4986386;28;20050;-53
2024/02/25 10:56:42;;;;;;;1.90;1.90;;;;;;;18.32;55.68;96910.31;4986072;28;20050;-56
2024/02/25 10:59:12;;;;;;;1.65;1.65;;;;;;;17.38;57.36;96907.56;4984301;28;20164;-53
2024/02/25 11:01:43;;;;;;;1.60;1.60;;;;;;;16.87;59.07;96916.09;4986777;28;20164;-63
2024/02/25 11:04:10;;;;;;;1.70;1.70;;;;;;;17.00;59.04;96913.59;4986472;28;20433;-63
2024/02/25 11:06:38;;;;;;;1.48;1.48;;;;;;;16.59;60.71;96910.78;4984631;28;20050;-53
2024/02/25 11:09:12;;;;;;;1.55;1.55;;;;;;;16.69;60.69;96906.31;4985799;28;20145;-52
2024/02/25 11:11:44;;;;;;;1.27;1.27;;;;;;;16.19;61.60;96892.69;4984264;28;20153;-54
2024/02/25 11:14:35;;;;;;;1.48;1.48;;;;;;;16.70;60.52;96908.69;4986495;28;20054;-53
2024/02/25 11:17:03;;;;;;;1.52;1.52;;;;;;;16.67;60.68;96905.91;4986016;28;20133;-55
2024/02/25 11:19:30;;;;;;;1.63;1.63;;;;;;;16.90;59.80;96903.31;4985540;28;20532;-53
2024/02/25 11:21:57;;;;;;;1.50;1.50;;;;;;;17.01;58.88;96896.38;4985575;28;20054;-63
2024/02/25 11:24:44;;;;;;;1.60;1.60;;;;;;;16.89;58.15;96890.50;4985676;28;20138;-53
2024/02/25 11:27:12;;;;;;;1.50;1.50;;;;;;;16.48;58.97;96849.38;4985360;28;20062;-63
2024/02/25 11:29:40;;;;;;;1.48;1.48;;;;;;;16.37;58.28;96870.19;4983838;28;20062;-54
2024/02/25 11:32:07;;;;;;;1.33;1.33;;;;;;;16.06;59.76;96888.78;4984978;28;20050;-63
2024/02/25 11:34:35;;;;;;;1.50;1.50;;;;;;;16.43;59.51;96891.72;4985465;28;20069;-62
2024/02/25 11:37:04;;;;;;;1.50;1.50;;;;;;;15.75;61.63;96850.69;4985274;28;20137;-53
2024/02/25 11:39:33;;;;;;;1.60;1.60;;;;;;;16.40;61.97;96881.34;4985484;28;20847;-53